createdAt,value
2022-12-18T00:01:19.233Z,4.60
2022-12-18T00:03:47.332Z,4.55
2022-12-18T00:06:16.097Z,5.18
2022-12-18T00:08:44.750Z,4.13
2022-12-18T00:11:15.821Z,3.78
2022-12-18T00:13:44.166Z,4.43
2022-12-18T00:16:14.603Z,4.43
2022-12-18T00:18:42.885Z,4.53
2022-12-18T00:21:12.161Z,3.85
2022-12-18T00:23:41.868Z,4.53
2022-12-18T00:26:13.686Z,4.07
2022-12-18T00:28:40.965Z,4.20
2022-12-18T00:31:11.430Z,3.67
2022-12-18T00:33:39.723Z,4.25
2022-12-18T00:36:10.619Z,4.45
2022-12-18T00:38:39.025Z,4.28
2022-12-18T00:41:08.597Z,4.10
2022-12-18T00:43:37.977Z,4.07
2022-12-18T00:46:05.858Z,3.65
2022-12-18T00:48:33.787Z,4.30
2022-12-18T00:51:01.241Z,4.03
2022-12-18T00:53:28.563Z,3.70
2022-12-18T00:55:57.091Z,3.83
2022-12-18T00:58:24.523Z,4.15
2022-12-18T01:00:51.865Z,3.33
2022-12-18T01:03:19.193Z,3.65
2022-12-18T01:05:46.658Z,4.18
2022-12-18T01:08:13.883Z,3.70
2022-12-18T01:10:44.398Z,3.72
2022-12-18T01:13:12.381Z,4.13
2022-12-18T01:15:41.134Z,4.00
2022-12-18T01:18:11.683Z,3.80
2022-12-18T01:20:39.293Z,3.63
2022-12-18T01:23:06.715Z,3.30
2022-12-18T01:25:37.286Z,3.30
2022-12-18T01:28:04.744Z,3.47
2022-12-18T01:30:33.211Z,3.50
2022-12-18T01:33:00.571Z,3.55
2022-12-18T01:35:27.914Z,3.80
2022-12-18T01:37:56.126Z,3.63
2022-12-18T01:40:23.815Z,3.53
2022-12-18T01:42:54.253Z,3.80
2022-12-18T01:45:26.443Z,3.05
2022-12-18T01:47:56.419Z,3.25
2022-12-18T01:50:33.275Z,3.92
2022-12-18T01:53:06.694Z,3.15
2022-12-18T01:55:41.453Z,3.65
2022-12-18T01:58:08.741Z,3.28
2022-12-18T02:00:36.184Z,3.47
2022-12-18T02:03:03.665Z,3.10
2022-12-18T02:05:40.125Z,4.07
2022-12-18T02:08:17.952Z,3.10
2022-12-18T02:11:03.831Z,3.30
2022-12-18T02:13:50.964Z,3.45
2022-12-18T02:16:21.225Z,3.05
2022-12-18T02:18:58.953Z,3.75
2022-12-18T02:21:44.055Z,3.72
2022-12-18T02:24:40.759Z,3.20
2022-12-18T02:27:10.500Z,3.53
2022-12-18T02:29:54.333Z,3.75
2022-12-18T02:32:31.272Z,2.92
2022-12-18T02:35:00.403Z,3.10
2022-12-18T02:37:31.796Z,3.70
2022-12-18T02:40:05.122Z,3.58
2022-12-18T02:42:34.321Z,3.83
2022-12-18T02:45:04.256Z,3.50
2022-12-18T02:47:37.990Z,3.40
2022-12-18T02:50:32.062Z,3.53
2022-12-18T02:53:16.578Z,3.55
2022-12-18T02:55:46.918Z,3.75
2022-12-18T02:58:22.534Z,2.75
2022-12-18T03:01:02.727Z,3.88
2022-12-18T03:03:40.662Z,2.97
2022-12-18T03:06:34.471Z,3.58
2022-12-18T03:09:10.205Z,3.35
2022-12-18T03:12:02.165Z,3.30
2022-12-18T03:14:32.126Z,2.88
2022-12-18T03:17:03.600Z,3.42
2022-12-18T03:19:34.399Z,3.53
2022-12-18T03:22:08.104Z,3.13
2022-12-18T03:24:47.251Z,3.80
2022-12-18T03:27:17.901Z,3.40
2022-12-18T03:29:47.665Z,3.25
2022-12-18T03:32:30.441Z,3.17
2022-12-18T03:35:04.203Z,3.30
2022-12-18T03:37:34.908Z,3.13
2022-12-18T03:40:02.857Z,2.95
2022-12-18T03:42:53.771Z,3.35
2022-12-18T03:45:38.712Z,2.83
2022-12-18T03:48:17.009Z,3.28
2022-12-18T03:50:58.283Z,3.22
2022-12-18T03:53:40.576Z,3.10
2022-12-18T03:56:10.889Z,3.58
2022-12-18T03:58:44.233Z,3.20
2022-12-18T04:01:20.866Z,3.03
2022-12-18T04:03:51.070Z,2.78
2022-12-18T04:06:21.168Z,3.30
2022-12-18T04:08:48.760Z,3.25
2022-12-18T04:11:20.924Z,2.97
2022-12-18T04:13:48.883Z,3.10
2022-12-18T04:16:23.046Z,3.28
2022-12-18T04:18:54.172Z,3.25
2022-12-18T04:21:23.760Z,3.35
2022-12-18T04:23:51.263Z,3.25
2022-12-18T04:26:21.472Z,3.28
2022-12-18T04:29:20.956Z,3.00
2022-12-18T04:31:48.637Z,3.33
2022-12-18T04:34:17.115Z,3.03
2022-12-18T04:36:50.417Z,3.30
2022-12-18T04:39:18.381Z,3.00
2022-12-18T04:41:46.608Z,3.55
2022-12-18T04:44:14.825Z,3.45
2022-12-18T04:46:42.249Z,3.08
2022-12-18T04:49:11.416Z,2.97
2022-12-18T04:51:38.722Z,3.08
2022-12-18T04:54:06.119Z,3.00
2022-12-18T04:56:33.589Z,2.90
2022-12-18T04:59:01.266Z,3.10
2022-12-18T05:01:34.362Z,2.80
2022-12-18T05:04:02.905Z,3.08
2022-12-18T05:06:30.427Z,2.35
2022-12-18T05:08:57.766Z,2.72
2022-12-18T05:11:25.079Z,2.83
2022-12-18T05:13:52.425Z,2.75
2022-12-18T05:16:19.761Z,2.75
2022-12-18T05:18:55.901Z,2.40
2022-12-18T05:21:23.219Z,2.90
2022-12-18T05:23:50.447Z,3.75
2022-12-18T05:26:19.122Z,3.20
2022-12-18T05:28:47.114Z,3.30
2022-12-18T05:31:15.269Z,3.10
2022-12-18T05:33:43.005Z,2.85
2022-12-18T05:36:10.856Z,2.70
2022-12-18T05:38:39.579Z,3.00
2022-12-18T05:41:08.176Z,2.90
2022-12-18T05:43:37.546Z,3.30
2022-12-18T05:46:07.489Z,2.92
2022-12-18T05:48:35.349Z,2.88
2022-12-18T05:51:08.315Z,2.58
2022-12-18T05:53:37.810Z,2.85
2022-12-18T05:56:07.869Z,3.20
2022-12-18T05:58:35.779Z,3.17
2022-12-18T06:01:20.458Z,3.20
2022-12-18T06:03:48.106Z,3.33
2022-12-18T06:06:16.892Z,2.70
2022-12-18T06:08:46.702Z,2.50
2022-12-18T06:11:18.506Z,2.60
2022-12-18T06:13:46.069Z,3.08
2022-12-18T06:16:14.098Z,2.90
2022-12-18T06:18:41.432Z,2.83
2022-12-18T06:21:08.747Z,2.35
2022-12-18T06:23:37.004Z,3.50
2022-12-18T06:26:09.927Z,3.10
2022-12-18T06:28:37.251Z,2.83
2022-12-18T06:31:05.824Z,2.53
2022-12-18T06:33:33.792Z,2.97
2022-12-18T06:36:03.750Z,2.85
2022-12-18T06:38:34.065Z,2.67
2022-12-18T06:41:01.343Z,2.70
2022-12-18T06:43:28.619Z,2.67
2022-12-18T06:46:00.815Z,2.80
2022-12-18T06:48:28.372Z,2.87
2022-12-18T06:50:55.935Z,2.55
2022-12-18T06:53:23.893Z,2.97
2022-12-18T06:55:51.384Z,3.17
2022-12-18T06:58:19.024Z,2.90
2022-12-18T07:00:46.411Z,3.28
2022-12-18T07:03:14.152Z,2.47
2022-12-18T07:05:42.128Z,2.85
2022-12-18T07:08:09.446Z,2.50
2022-12-18T07:10:47.522Z,2.17
2022-12-18T07:13:17.382Z,2.95
2022-12-18T07:15:45.444Z,2.33
2022-12-18T07:18:12.816Z,2.70
2022-12-18T07:20:40.872Z,2.33
2022-12-18T07:23:08.169Z,2.55
2022-12-18T07:25:37.402Z,2.63
2022-12-18T07:28:05.680Z,2.70
2022-12-18T07:30:32.974Z,2.78
2022-12-18T07:33:00.345Z,2.63
2022-12-18T07:35:27.600Z,2.15
2022-12-18T07:37:54.879Z,2.80
2022-12-18T07:40:22.170Z,2.78
2022-12-18T07:42:49.474Z,3.13
2022-12-18T07:45:16.925Z,2.95
2022-12-18T07:47:44.505Z,3.10
2022-12-18T07:50:12.004Z,2.92
2022-12-18T07:52:39.277Z,2.90
2022-12-18T07:55:06.948Z,2.72
2022-12-18T07:57:50.019Z,3.08
2022-12-18T08:00:18.894Z,2.58
2022-12-18T08:02:46.239Z,2.50
2022-12-18T08:05:14.395Z,2.70
2022-12-18T08:07:41.712Z,2.75
2022-12-18T08:10:09.599Z,2.70
2022-12-18T08:12:36.904Z,2.53
2022-12-18T08:15:04.462Z,2.92
2022-12-18T08:17:32.284Z,2.75
2022-12-18T08:19:59.585Z,3.05
2022-12-18T08:22:26.891Z,2.83
2022-12-18T08:24:54.389Z,3.10
2022-12-18T08:27:29.438Z,2.67
2022-12-18T08:29:57.842Z,2.78
2022-12-18T08:32:27.223Z,2.78
2022-12-18T08:34:54.918Z,2.58
2022-12-18T08:37:22.274Z,2.47
2022-12-18T08:39:49.589Z,3.20
2022-12-18T08:42:35.592Z,2.60
2022-12-18T08:45:03.995Z,3.33
2022-12-18T08:47:31.316Z,2.70
2022-12-18T08:49:58.721Z,2.33
2022-12-18T08:52:26.021Z,2.92
2022-12-18T08:54:53.210Z,2.60
2022-12-18T08:57:20.480Z,2.67
2022-12-18T08:59:47.697Z,2.88
2022-12-18T09:02:15.049Z,2.78
2022-12-18T09:04:42.520Z,2.67
2022-12-18T09:07:10.029Z,2.83
2022-12-18T09:09:37.443Z,3.47
2022-12-18T09:12:04.812Z,2.72
2022-12-18T09:14:32.050Z,2.60
2022-12-18T09:16:59.394Z,3.05
2022-12-18T09:19:27.813Z,2.53
2022-12-18T09:21:55.493Z,2.55
2022-12-18T09:24:22.847Z,2.78
2022-12-18T09:26:57.663Z,2.92
2022-12-18T09:29:25.652Z,2.47
2022-12-18T09:31:53.021Z,2.80
2022-12-18T09:34:22.729Z,2.80
2022-12-18T09:36:50.339Z,2.70
2022-12-18T09:39:18.544Z,3.10
2022-12-18T09:41:57.991Z,3.00
2022-12-18T09:44:44.511Z,2.70
2022-12-18T09:47:15.553Z,2.80
2022-12-18T09:49:49.319Z,2.67
2022-12-18T09:52:36.888Z,2.78
2022-12-18T09:55:25.713Z,2.92
2022-12-18T09:57:58.720Z,2.90
2022-12-18T10:00:26.851Z,2.45
2022-12-18T10:03:00.860Z,2.95
2022-12-18T10:06:02.932Z,2.92
2022-12-18T10:09:03.492Z,2.90
2022-12-18T10:11:50.139Z,3.92
2022-12-18T10:14:35.901Z,3.20
2022-12-18T10:17:21.773Z,4.40
2022-12-18T10:20:15.297Z,3.90
2022-12-18T10:23:01.480Z,4.07
2022-12-18T10:25:46.709Z,3.78
2022-12-18T10:28:16.558Z,4.03
2022-12-18T10:30:44.850Z,4.18
2022-12-18T10:33:18.950Z,3.20
2022-12-18T10:35:48.093Z,3.35
2022-12-18T10:38:15.345Z,3.50
2022-12-18T10:40:55.052Z,3.33
2022-12-18T10:43:32.870Z,3.58
2022-12-18T10:46:09.049Z,3.38
2022-12-18T10:48:48.125Z,3.42
2022-12-18T10:51:30.292Z,3.75
2022-12-18T10:54:03.051Z,4.32
2022-12-18T10:56:35.059Z,4.10
2022-12-18T10:59:13.729Z,4.40
2022-12-18T11:01:53.193Z,4.30
2022-12-18T11:04:31.523Z,4.10
2022-12-18T11:07:03.916Z,3.35
2022-12-18T11:09:33.889Z,3.60
2022-12-18T11:12:15.467Z,3.50
2022-12-18T11:14:47.609Z,3.15
2022-12-18T11:17:25.847Z,3.70
2022-12-18T11:20:07.942Z,3.88
2022-12-18T11:22:37.853Z,3.17
2022-12-18T11:25:35.437Z,3.55
2022-12-18T11:28:25.966Z,2.88
2022-12-18T11:31:18.111Z,3.17
2022-12-18T11:34:28.550Z,3.20
2022-12-18T11:37:00.632Z,3.22
2022-12-18T11:39:33.916Z,3.70
2022-12-18T11:44:59.393Z,3.33
2022-12-18T11:47:40.246Z,2.95
2022-12-18T11:51:03.223Z,3.35
2022-12-18T11:53:31.463Z,3.00
2022-12-18T11:56:16.938Z,3.60
2022-12-18T11:58:47.160Z,3.20
2022-12-18T12:01:29.216Z,3.25
2022-12-18T12:04:17.826Z,4.00
2022-12-18T12:07:06.679Z,3.25
2022-12-18T12:09:58.361Z,3.13
2022-12-18T12:12:48.552Z,2.95
2022-12-18T12:15:56.485Z,3.63
2022-12-18T12:18:57.756Z,3.35
2022-12-18T12:21:50.955Z,3.92
2022-12-18T12:24:25.414Z,3.20
2022-12-18T12:27:16.408Z,3.22
2022-12-18T12:29:56.742Z,3.70
2022-12-18T12:32:32.264Z,3.65
2022-12-18T12:35:18.073Z,4.53
2022-12-18T12:38:06.786Z,3.30
2022-12-18T12:40:52.670Z,3.45
2022-12-18T12:46:52.922Z,3.10
2022-12-18T12:49:24.638Z,3.63
2022-12-18T12:52:01.720Z,3.28
2022-12-18T12:54:29.970Z,3.72
2022-12-18T12:57:14.515Z,3.50
2022-12-18T12:59:59.410Z,3.63
2022-12-18T13:02:37.023Z,3.35
2022-12-18T13:05:35.894Z,2.97
2022-12-18T13:08:11.010Z,3.50
2022-12-18T13:10:41.518Z,3.30
2022-12-18T13:13:16.495Z,2.78
2022-12-18T13:16:06.622Z,3.55
2022-12-18T13:18:35.433Z,2.97
2022-12-18T13:21:25.715Z,3.45
2022-12-18T13:23:53.061Z,3.70
2022-12-18T13:26:24.760Z,3.78
2022-12-18T13:28:56.578Z,3.13
2022-12-18T13:31:43.400Z,2.92
2022-12-18T13:34:27.737Z,3.90
2022-12-18T13:37:17.730Z,2.80
2022-12-18T13:39:45.189Z,3.58
2022-12-18T13:42:35.825Z,3.40
2022-12-18T13:45:58.332Z,3.53
2022-12-18T13:48:27.990Z,3.70
2022-12-18T13:51:05.704Z,3.78
2022-12-18T13:53:45.737Z,3.67
2022-12-18T13:56:29.441Z,3.47
2022-12-18T13:59:17.911Z,4.40
2022-12-18T14:01:56.495Z,3.70
2022-12-18T14:04:30.333Z,3.67
2022-12-18T14:07:11.906Z,4.38
2022-12-18T14:09:44.385Z,4.10
2022-12-18T14:12:45.045Z,3.88
2022-12-18T14:15:28.054Z,3.90
2022-12-18T14:17:59.337Z,3.83
2022-12-18T14:20:29.264Z,3.63
2022-12-18T14:22:58.469Z,3.95
2022-12-18T14:25:31.797Z,4.07
2022-12-18T14:28:09.143Z,3.83
2022-12-18T14:30:37.491Z,3.78
2022-12-18T14:33:16.493Z,3.95
2022-12-18T14:36:05.562Z,3.47
2022-12-18T14:38:37.260Z,3.85
2022-12-18T14:41:12.942Z,4.22
2022-12-18T14:43:43.530Z,4.05
2022-12-18T14:46:40.243Z,3.35
2022-12-18T14:49:25.832Z,4.20
2022-12-18T14:51:56.214Z,4.07
2022-12-18T14:54:25.184Z,3.78
2022-12-18T14:57:21.344Z,3.60
2022-12-18T14:59:48.766Z,4.30
2022-12-18T15:02:28.992Z,4.50
2022-12-18T15:05:13.584Z,4.03
2022-12-18T15:07:51.845Z,3.63
2022-12-18T15:10:27.744Z,4.20
2022-12-18T15:12:58.084Z,4.18
2022-12-18T15:15:34.931Z,4.57
2022-12-18T15:18:09.795Z,4.03
2022-12-18T15:20:41.323Z,4.97
2022-12-18T15:23:37.391Z,4.57
2022-12-18T15:26:11.470Z,4.85
2022-12-18T15:28:40.729Z,4.97
2022-12-18T15:31:12.515Z,4.18
2022-12-18T15:33:47.178Z,4.50
2022-12-18T15:36:18.999Z,4.88
2022-12-18T15:38:56.169Z,4.60
2022-12-18T15:41:35.752Z,4.80
2022-12-18T15:44:21.904Z,4.55
2022-12-18T15:46:49.409Z,4.60
2022-12-18T15:49:16.666Z,4.38
2022-12-18T15:51:44.275Z,4.38
2022-12-18T15:54:17.147Z,4.35
2022-12-18T15:57:03.080Z,4.35
2022-12-18T15:59:30.441Z,4.47
2022-12-18T16:01:58.040Z,4.85
2022-12-18T16:04:26.269Z,4.55
2022-12-18T16:09:41.148Z,5.32
2022-12-18T16:12:20.263Z,5.13
2022-12-18T16:14:47.618Z,5.05
2022-12-18T16:17:15.753Z,5.10
2022-12-18T16:19:44.814Z,5.60
2022-12-18T16:22:28.831Z,4.70
2022-12-18T16:24:57.247Z,4.65
2022-12-18T16:27:25.732Z,4.85
2022-12-18T16:29:52.943Z,4.80
2022-12-18T16:32:22.423Z,4.72
2022-12-18T16:34:50.872Z,4.60
2022-12-18T16:37:18.278Z,4.78
2022-12-18T16:39:45.986Z,4.40
2022-12-18T16:42:17.528Z,4.53
2022-12-18T16:44:45.985Z,5.03
2022-12-18T16:47:14.939Z,5.35
2022-12-18T16:49:45.333Z,5.03
2022-12-18T16:52:14.043Z,4.50
2022-12-18T16:54:41.417Z,4.38
2022-12-18T16:57:13.104Z,4.85
2022-12-18T16:59:40.529Z,5.47
2022-12-18T17:02:15.024Z,5.20
2022-12-18T17:04:44.136Z,4.78
2022-12-18T17:07:11.824Z,4.80
2022-12-18T17:09:40.517Z,4.88
2022-12-18T17:12:08.379Z,5.03
2022-12-18T17:14:36.382Z,4.85
2022-12-18T17:17:21.273Z,5.45
2022-12-18T17:19:49.563Z,4.90
2022-12-18T17:22:16.974Z,4.80
2022-12-18T17:24:44.443Z,5.28
2022-12-18T17:27:11.837Z,5.50
2022-12-18T17:29:45.319Z,5.47
2022-12-18T17:32:15.304Z,5.45
2022-12-18T17:34:42.644Z,5.78
2022-12-18T17:37:11.598Z,6.10
2022-12-18T17:39:39.203Z,5.13
2022-12-18T17:42:07.697Z,5.53
2022-12-18T17:44:37.096Z,5.75
2022-12-18T17:47:06.089Z,5.97
2022-12-18T17:49:33.420Z,5.72
2022-12-18T17:52:00.742Z,6.07
2022-12-18T17:54:28.096Z,5.97
2022-12-18T17:56:55.486Z,5.78
2022-12-18T17:59:22.873Z,6.07
2022-12-18T18:01:50.408Z,6.32
2022-12-18T18:04:17.858Z,6.45
2022-12-18T18:06:45.205Z,6.15
2022-12-18T18:09:16.126Z,6.22
2022-12-18T18:12:03.797Z,6.03
2022-12-18T18:14:32.348Z,6.15
2022-12-18T18:17:04.217Z,6.22
2022-12-18T18:19:33.630Z,6.88
2022-12-18T18:22:02.132Z,6.45
2022-12-18T18:24:30.795Z,5.90
2022-12-18T18:27:00.017Z,6.70
2022-12-18T18:29:30.553Z,6.93
2022-12-18T18:31:58.847Z,6.40
2022-12-18T18:34:29.483Z,6.70
2022-12-18T18:36:56.935Z,6.53
2022-12-18T18:39:24.339Z,7.05
2022-12-18T18:41:51.777Z,7.32
2022-12-18T18:44:26.141Z,6.55
2022-12-18T18:46:55.928Z,6.75
2022-12-18T18:49:27.058Z,6.47
2022-12-18T18:51:55.848Z,7.00
2022-12-18T18:54:23.743Z,6.93
2022-12-18T18:59:38.636Z,7.18
2022-12-18T19:02:06.601Z,8.02
2022-12-18T19:04:34.428Z,7.53
2022-12-18T19:07:02.171Z,7.25
2022-12-18T19:09:29.505Z,7.38
2022-12-18T19:12:16.193Z,7.10
2022-12-18T19:14:44.714Z,7.70
2022-12-18T19:17:11.990Z,8.40
2022-12-18T19:19:39.345Z,8.13
2022-12-18T19:22:06.744Z,8.23
2022-12-18T19:24:34.112Z,7.47
2022-12-18T19:27:01.482Z,7.25
2022-12-18T19:29:28.809Z,7.65
2022-12-18T19:31:56.315Z,8.20
2022-12-18T19:34:23.604Z,7.43
2022-12-18T19:36:53.903Z,8.05
2022-12-18T19:39:25.673Z,7.82
2022-12-18T19:41:53.036Z,7.43
2022-12-18T19:45:25.791Z,8.63
2022-12-18T19:47:53.215Z,7.78
2022-12-18T19:50:20.572Z,8.20
2022-12-18T19:52:47.870Z,8.40
2022-12-18T19:55:15.320Z,8.30
2022-12-18T19:57:42.600Z,8.35
2022-12-18T20:00:16.926Z,8.30
2022-12-18T20:02:46.130Z,8.73
2022-12-18T20:05:13.994Z,8.70
2022-12-18T20:07:41.398Z,8.45
2022-12-18T20:10:14.629Z,9.48
2022-12-18T20:12:43.408Z,7.88
2022-12-18T20:15:11.171Z,8.93
2022-12-18T20:17:38.728Z,8.77
2022-12-18T20:20:06.654Z,8.40
2022-12-18T20:22:34.694Z,8.32
2022-12-18T20:25:02.058Z,9.48
2022-12-18T20:27:29.442Z,8.85
2022-12-18T20:29:56.838Z,9.00
2022-12-18T20:32:25.549Z,9.43
2022-12-18T20:34:52.970Z,9.15
2022-12-18T20:37:20.533Z,9.65
2022-12-18T20:39:48.651Z,9.45
2022-12-18T20:42:16.798Z,9.55
2022-12-18T20:44:44.082Z,9.30
2022-12-18T20:47:11.589Z,9.68
2022-12-18T20:49:38.914Z,9.50
2022-12-18T20:52:10.073Z,10.30
2022-12-18T20:54:37.448Z,9.20
2022-12-18T20:57:04.762Z,9.05
2022-12-18T20:59:32.204Z,10.95
2022-12-18T21:01:59.643Z,9.75
2022-12-18T21:04:27.289Z,9.65
2022-12-18T21:06:57.793Z,9.88
2022-12-18T21:12:18.204Z,10.38
2022-12-18T21:14:45.639Z,9.60
2022-12-18T21:17:13.928Z,9.82
2022-12-18T21:19:41.241Z,10.38
2022-12-18T21:22:09.987Z,9.98
2022-12-18T21:24:38.752Z,10.35
2022-12-18T21:27:06.215Z,10.27
2022-12-18T21:29:34.866Z,9.98
2022-12-18T21:32:03.081Z,10.35
2022-12-18T21:34:34.153Z,9.38
2022-12-18T21:37:02.310Z,10.10
2022-12-18T21:39:30.750Z,9.77
2022-12-18T21:42:16.855Z,8.95
2022-12-18T21:44:46.954Z,9.63
2022-12-18T21:47:21.314Z,9.52
2022-12-18T21:49:53.102Z,8.80
2022-12-18T21:52:29.796Z,9.10
2022-12-18T21:55:09.019Z,9.48
2022-12-18T21:57:41.413Z,9.43
2022-12-18T22:00:18.452Z,8.77
2022-12-18T22:02:46.514Z,9.35
2022-12-18T22:05:14.006Z,9.55
2022-12-18T22:07:41.376Z,9.48
2022-12-18T22:10:09.137Z,9.75
2022-12-18T22:12:44.066Z,9.13
2022-12-18T22:15:20.018Z,9.40
2022-12-18T22:17:59.971Z,9.38
2022-12-18T22:20:29.847Z,8.73
2022-12-18T22:22:57.958Z,9.10
2022-12-18T22:25:25.547Z,8.90
2022-12-18T22:28:11.596Z,9.38
2022-12-18T22:30:39.241Z,9.55
2022-12-18T22:33:06.675Z,9.10
2022-12-18T22:35:33.909Z,9.43
2022-12-18T22:38:01.721Z,8.88
2022-12-18T22:40:29.669Z,9.80
2022-12-18T22:42:57.187Z,9.30
2022-12-18T22:45:26.576Z,9.00
2022-12-18T22:47:54.071Z,8.82
2022-12-18T22:50:21.308Z,9.05
2022-12-18T22:52:48.578Z,10.48
2022-12-18T22:55:16.097Z,8.70
2022-12-18T22:57:49.102Z,9.10
2022-12-18T23:00:19.865Z,9.02
2022-12-18T23:02:59.276Z,9.88
2022-12-18T23:05:27.410Z,10.13
2022-12-18T23:07:54.720Z,9.25
2022-12-18T23:10:22.740Z,10.73
2022-12-18T23:12:50.011Z,9.75
2022-12-18T23:15:17.304Z,9.88
2022-12-18T23:17:46.759Z,10.30
2022-12-18T23:20:14.245Z,9.52
2022-12-18T23:22:41.603Z,10.18
2022-12-18T23:25:09.424Z,10.82
2022-12-18T23:27:36.908Z,10.20
2022-12-18T23:30:04.728Z,11.40
2022-12-18T23:32:32.345Z,11.15
2022-12-18T23:35:01.433Z,10.93
2022-12-18T23:37:56.971Z,11.05
2022-12-18T23:40:16.180Z,12.07
2022-12-18T23:42:43.469Z,12.40
2022-12-18T23:45:17.545Z,11.80
2022-12-18T23:47:47.057Z,12.68
2022-12-18T23:50:18.357Z,13.52
2022-12-18T23:52:45.618Z,13.40
2022-12-18T23:55:12.860Z,12.88
2022-12-18T23:57:40.101Z,13.07
